Grande Europa — ICGE — position and weather

sailwx.info

Track history (hours):
 
Tides and Currents Weather Stations Pressure Air Temp Water Temp Dewpoint Dewpoint Depression Visibility Wind Speed Wind Dir Waves Ship Positions

Grande Europa

Last reported at 2015-Mar-28 10:18 UTC. Time now 2015-Mar-28 12:19 UTC.
Position N 36°41' W 009°26'.

Length 183 m; draft 9.3 m.

Type: Cargo ship. MMSI: 247206000.

Date/timePositionNaut miles runAvg speedWind from/ knotsBaromVisibWave heightAir tempDewpointWater temp
2015-Mar-28 10:18N 36°41' W 009°26'3117.3
2015-Mar-28 08:31N 37°10' W 009°39'1617.1
2015-Mar-28 07:34N 37°26' W 009°43'1817.4
2015-Mar-28 06:33N 37°43' W 009°48'1817.6
2015-Mar-28 05:31N 38°01' W 009°54'1717.7
2015-Mar-28 04:34N 38°17' W 009°58'1817.5
2015-Mar-28 03:33N 38°35' W 010°03'1717.3
2015-Mar-28 02:33N 38°52' W 010°06'1817.9
2015-Mar-28 01:32N 39°10' W 010°07'1717.4
2015-Mar-28 00:33N 39°27' W 010°08'75415.7
2015-Mar-26 00:24N 50°25' W 001°26'1113.7
2015-Mar-25 23:33N 50°30' W 001°10'1312.8
2015-Mar-25 22:33N 50°40' W 000°58'1312.9
2015-Mar-25 21:33N 50°46' W 001°16'9 8.9
2015-Mar-25 20:33N 50°54' W 001°25'1 0.8
2015-Mar-25 19:33N 50°54' W 001°25'0 0.0
2015-Mar-25 18:33N 50°54' W 001°25'0 0.0
2015-Mar-25 17:33N 50°54' W 001°25'0 0.0
2015-Mar-25 16:33N 50°54' W 001°25'0 0.0
2015-Mar-25 15:33N 50°54' W 001°25'0 0.0
2015-Mar-25 14:33N 50°54' W 001°25'0 0.0
2015-Mar-25 13:33N 50°54' W 001°25'0 0.0
2015-Mar-25 12:32N 50°54' W 001°25'0 0.0
2015-Mar-25 11:33N 50°54' W 001°25'0 0.0
2015-Mar-25 10:33N 50°54' W 001°25'0 0.0
2015-Mar-25 09:33N 50°54' W 001°25'0 0.0
2015-Mar-25 08:33N 50°54' W 001°25'0 0.0
2015-Mar-25 07:33N 50°54' W 001°25'6 5.8
2015-Mar-25 06:33N 50°50' W 001°19'1211.9
2015-Mar-25 05:33N 50°44' W 001°03'1110.8
2015-Mar-25 04:33N 50°37' W 000°49'2914.1
2015-Mar-25 02:32N 50°31' W 000°05'1515.8
2015-Mar-25 01:34N 50°35' E 000°18'1514.8
2015-Mar-25 00:34N 50°40' E 000°40'1515.3
2015-Mar-24 23:33N 50°48' E 000°60'1717.1
2015-Mar-24 22:34N 50°58' E 001°22'2019.5
2015-Mar-24 21:34N 51°12' E 001°43'1716.9
2015-Mar-24 20:33N 51°24' E 002°03'1616.5
2015-Mar-24 19:33N 51°22' E 002°30'1414.2
2015-Mar-24 18:34N 51°22' E 002°52'1615.7
2015-Mar-24 17:33N 51°24' E 003°17'1313.3
2015-Mar-24 16:34N 51°26' E 003°38'1111.3
2015-Mar-24 15:33N 51°22' E 003°55'8 8.3
2015-Mar-24 14:33N 51°22' E 004°08'9 9.0
2015-Mar-24 13:34N 51°17' E 004°19'2 1.7
2015-Mar-24 12:33N 51°16' E 004°17'3 2.5
2015-Mar-24 11:32N 51°16' E 004°13'0 0.0
2015-Mar-24 10:32N 51°16' E 004°13'0 0.0
2015-Mar-24 09:32N 51°16' E 004°13'0 0.0
2015-Mar-24 08:32N 51°16' E 004°13'0 0.0
2015-Mar-24 07:32N 51°16' E 004°13'0 0.0
2015-Mar-24 06:32N 51°16' E 004°13'0 0.0
2015-Mar-24 05:29N 51°16' E 004°13'0 0.0
2015-Mar-24 04:32N 51°16' E 004°13'0 0.0
2015-Mar-24 03:32N 51°16' E 004°13'0 0.0
2015-Mar-24 02:29N 51°16' E 004°13'0 0.0
2015-Mar-24 01:29N 51°16' E 004°13'0 0.0
2015-Mar-24 00:32N 51°16' E 004°13'0 0.0
2015-Mar-23 23:32N 51°16' E 004°13'0 0.0
2015-Mar-23 22:32N 51°16' E 004°13'0 0.0
2015-Mar-23 21:32N 51°16' E 004°13'0 0.0
2015-Mar-23 20:29N 51°16' E 004°13'0 0.0
2015-Mar-23 19:32N 51°16' E 004°13'0 0.0
2015-Mar-23 18:29N 51°16' E 004°13'0 0.0
2015-Mar-23 17:32N 51°16' E 004°13'0 0.0
2015-Mar-23 16:32N 51°16' E 004°13'0 0.0
2015-Mar-23 15:32N 51°16' E 004°13'0 0.0
2015-Mar-23 14:29N 51°16' E 004°13'2 2.3
2015-Mar-23 13:34N 51°16' E 004°16'0 0.4
2015-Mar-23 12:34N 51°16' E 004°17'2 1.9
2015-Mar-23 11:34N 51°17' E 004°19'9 9.1
2015-Mar-23 10:33N 51°22' E 004°08'9 9.4
2015-Mar-23 09:34N 51°21' E 003°53'1211.6
2015-Mar-23 08:33N 51°26' E 003°36'1211.6
2015-Mar-23 07:33N 51°24' E 003°17'1110.5
2015-Mar-23 06:34N 51°29' E 003°02'1615.8
2015-Mar-23 05:33N 51°44' E 003°13'1413.4
2015-Mar-23 04:32N 51°57' E 003°19'1615.7
2015-Mar-23 03:30N 52°13' E 003°24'5116.6
2015-Mar-23 00:25N 52°58' E 004°02'1618.3
2015-Mar-22 23:32N 53°09' E 004°22'1817.8
2015-Mar-22 22:33N 53°25' E 004°34'2117.4
2015-Mar-22 21:21N 53°45' E 004°44'1417.3
2015-Mar-22 20:33N 53°58' E 004°50'1717.1
2015-Mar-22 19:33N 54°14' E 005°03'1817.5
2015-Mar-22 18:32N 54°29' E 005°17'26716.7
2015-Mar-22 02:34N 57°50' E 010°34'1817.9
2015-Mar-22 01:33N 57°51' E 011°08'1514.8
2015-Mar-22 00:33N 57°55' E 011°34'7 5.4
2015-Mar-21 23:15N 58°01' E 011°42'0 0.0
2015-Mar-21 22:27N 58°01' E 011°42'0 0.0
2015-Mar-21 21:27N 58°01' E 011°42'0 0.0
2015-Mar-21 20:33N 58°01' E 011°42'0 0.0
2015-Mar-21 19:30N 58°01' E 011°42'0 0.0
2015-Mar-21 18:33N 58°01' E 011°42'0 0.0
2015-Mar-21 17:33N 58°01' E 011°42'0 0.0
2015-Mar-21 16:30N 58°01' E 011°42'0 0.0
2015-Mar-21 15:27N 58°01' E 011°42'0 0.0
2015-Mar-21 14:29N 58°01' E 011°42'0 0.0
2015-Mar-21 13:27N 58°01' E 011°42'0 0.0
2015-Mar-21 12:33N 58°01' E 011°42'0 0.0
2015-Mar-21 11:33N 58°01' E 011°42'0 0.0
2015-Mar-21 10:33N 58°01' E 011°42'0 0.0
2015-Mar-21 09:24N 58°01' E 011°42'0 0.0
2015-Mar-21 08:24N 58°01' E 011°42'0 0.1
2015-Mar-21 07:33N 58°01' E 011°42'9 9.4
2015-Mar-21 06:33N 57°54' E 011°31'1212.5
2015-Mar-21 05:33N 57°51' E 011°08'1515.5
2015-Mar-21 04:33N 57°51' E 010°39'17414.4
2015-Mar-20 16:28N 55°26' E 007°45'1516.1
2015-Mar-20 15:33N 55°25' E 008°11'9 9.0
2015-Mar-20 14:32N 55°27' E 008°26'1 0.6
2015-Mar-20 13:33N 55°28' E 008°27'0 0.0
2015-Mar-20 12:18N 55°28' E 008°27'0 0.0
2015-Mar-20 11:33N 55°28' E 008°27'0 0.0
2015-Mar-20 10:30N 55°28' E 008°27'0 0.0
2015-Mar-20 09:21N 55°28' E 008°27'0 0.0
2015-Mar-20 08:21N 55°28' E 008°27'0 0.0
2015-Mar-20 07:21N 55°28' E 008°27'0 0.0
2015-Mar-20 06:27N 55°28' E 008°27'0 0.0
2015-Mar-20 05:27N 55°28' E 008°27'0 0.0
2015-Mar-20 04:30N 55°28' E 008°27'2 2.6
2015-Mar-20 03:33N 55°29' E 008°23'1312.7
2015-Mar-20 02:33N 55°22' E 008°05'1716.8
2015-Mar-20 01:33N 55°11' E 007°42'8617.2
2015-Mar-19 20:33N 54°26' E 005°35'1817.7
2015-Mar-19 19:33N 54°15' E 005°12'1717.3
2015-Mar-19 18:33N 54°03' E 004°50'1817.6
2015-Mar-19 17:33N 53°51' E 004°29'4017.4
2015-Mar-19 15:17N 53°23' E 003°40'1718.2
2015-Mar-19 14:20N 53°07' E 003°29'9917.1
2015-Mar-19 08:33N 51°37' E 002°23'1515.1
2015-Mar-19 07:33N 51°26' E 002°07'1514.6
2015-Mar-19 06:33N 51°14' E 001°52'1414.3
2015-Mar-19 05:34N 51°04' E 001°36'2914.2
2015-Mar-19 03:30N 50°39' E 001°14'1515.3
2015-Mar-19 02:33N 50°30' E 000°55'1615.6
2015-Mar-19 01:33N 50°26' E 000°32'  
Track history (hours):
 
Tides and Currents Weather Stations Pressure Air Temp Water Temp Dewpoint Dewpoint Depression Visibility Wind Speed Wind Dir Waves Ship Positions

Grande Europa

Last reported at 2015-Mar-28 10:18 UTC. Time now 2015-Mar-28 12:19 UTC.
Position N 36°41' W 009°26'.

Length 183 m; draft 9.3 m.

Type: Cargo ship. MMSI: 247206000.

Date/timePositionNaut miles runAvg speedWind from/ knotsBaromVisibWave heightAir tempDewpointWater temp
2015-Mar-28 10:18N 36°41' W 009°26'3117.3
2015-Mar-28 08:31N 37°10' W 009°39'1617.1
2015-Mar-28 07:34N 37°26' W 009°43'1817.4
2015-Mar-28 06:33N 37°43' W 009°48'1817.6
2015-Mar-28 05:31N 38°01' W 009°54'1717.7
2015-Mar-28 04:34N 38°17' W 009°58'1817.5
2015-Mar-28 03:33N 38°35' W 010°03'1717.3
2015-Mar-28 02:33N 38°52' W 010°06'1817.9
2015-Mar-28 01:32N 39°10' W 010°07'1717.4
2015-Mar-28 00:33N 39°27' W 010°08'75415.7
2015-Mar-26 00:24N 50°25' W 001°26'1113.7
2015-Mar-25 23:33N 50°30' W 001°10'1312.8
2015-Mar-25 22:33N 50°40' W 000°58'1312.9
2015-Mar-25 21:33N 50°46' W 001°16'9 8.9
2015-Mar-25 20:33N 50°54' W 001°25'1 0.8
2015-Mar-25 19:33N 50°54' W 001°25'0 0.0
2015-Mar-25 18:33N 50°54' W 001°25'0 0.0
2015-Mar-25 17:33N 50°54' W 001°25'0 0.0
2015-Mar-25 16:33N 50°54' W 001°25'0 0.0
2015-Mar-25 15:33N 50°54' W 001°25'0 0.0
2015-Mar-25 14:33N 50°54' W 001°25'0 0.0
2015-Mar-25 13:33N 50°54' W 001°25'0 0.0
2015-Mar-25 12:32N 50°54' W 001°25'0 0.0
2015-Mar-25 11:33N 50°54' W 001°25'0 0.0
2015-Mar-25 10:33N 50°54' W 001°25'0 0.0
2015-Mar-25 09:33N 50°54' W 001°25'0 0.0
2015-Mar-25 08:33N 50°54' W 001°25'0 0.0
2015-Mar-25 07:33N 50°54' W 001°25'6 5.8
2015-Mar-25 06:33N 50°50' W 001°19'1211.9
2015-Mar-25 05:33N 50°44' W 001°03'1110.8
2015-Mar-25 04:33N 50°37' W 000°49'2914.1
2015-Mar-25 02:32N 50°31' W 000°05'1515.8
2015-Mar-25 01:34N 50°35' E 000°18'1514.8
2015-Mar-25 00:34N 50°40' E 000°40'1515.3
2015-Mar-24 23:33N 50°48' E 000°60'1717.1
2015-Mar-24 22:34N 50°58' E 001°22'2019.5
2015-Mar-24 21:34N 51°12' E 001°43'1716.9
2015-Mar-24 20:33N 51°24' E 002°03'1616.5
2015-Mar-24 19:33N 51°22' E 002°30'1414.2
2015-Mar-24 18:34N 51°22' E 002°52'1615.7
2015-Mar-24 17:33N 51°24' E 003°17'1313.3
2015-Mar-24 16:34N 51°26' E 003°38'1111.3
2015-Mar-24 15:33N 51°22' E 003°55'8 8.3
2015-Mar-24 14:33N 51°22' E 004°08'9 9.0
2015-Mar-24 13:34N 51°17' E 004°19'2 1.7
2015-Mar-24 12:33N 51°16' E 004°17'3 2.5
2015-Mar-24 11:32N 51°16' E 004°13'0 0.0
2015-Mar-24 10:32N 51°16' E 004°13'0 0.0
2015-Mar-24 09:32N 51°16' E 004°13'0 0.0
2015-Mar-24 08:32N 51°16' E 004°13'0 0.0
2015-Mar-24 07:32N 51°16' E 004°13'0 0.0
2015-Mar-24 06:32N 51°16' E 004°13'0 0.0
2015-Mar-24 05:29N 51°16' E 004°13'0 0.0
2015-Mar-24 04:32N 51°16' E 004°13'0 0.0
2015-Mar-24 03:32N 51°16' E 004°13'0 0.0
2015-Mar-24 02:29N 51°16' E 004°13'0 0.0
2015-Mar-24 01:29N 51°16' E 004°13'0 0.0
2015-Mar-24 00:32N 51°16' E 004°13'0 0.0
2015-Mar-23 23:32N 51°16' E 004°13'0 0.0
2015-Mar-23 22:32N 51°16' E 004°13'0 0.0
2015-Mar-23 21:32N 51°16' E 004°13'0 0.0
2015-Mar-23 20:29N 51°16' E 004°13'0 0.0
2015-Mar-23 19:32N 51°16' E 004°13'0 0.0
2015-Mar-23 18:29N 51°16' E 004°13'0 0.0
2015-Mar-23 17:32N 51°16' E 004°13'0 0.0
2015-Mar-23 16:32N 51°16' E 004°13'0 0.0
2015-Mar-23 15:32N 51°16' E 004°13'0 0.0
2015-Mar-23 14:29N 51°16' E 004°13'2 2.3
2015-Mar-23 13:34N 51°16' E 004°16'0 0.4
2015-Mar-23 12:34N 51°16' E 004°17'2 1.9
2015-Mar-23 11:34N 51°17' E 004°19'9 9.1
2015-Mar-23 10:33N 51°22' E 004°08'9 9.4
2015-Mar-23 09:34N 51°21' E 003°53'1211.6
2015-Mar-23 08:33N 51°26' E 003°36'1211.6
2015-Mar-23 07:33N 51°24' E 003°17'1110.5
2015-Mar-23 06:34N 51°29' E 003°02'1615.8
2015-Mar-23 05:33N 51°44' E 003°13'1413.4
2015-Mar-23 04:32N 51°57' E 003°19'1615.7
2015-Mar-23 03:30N 52°13' E 003°24'5116.6
2015-Mar-23 00:25N 52°58' E 004°02'1618.3
2015-Mar-22 23:32N 53°09' E 004°22'1817.8
2015-Mar-22 22:33N 53°25' E 004°34'2117.4
2015-Mar-22 21:21N 53°45' E 004°44'1417.3
2015-Mar-22 20:33N 53°58' E 004°50'1717.1
2015-Mar-22 19:33N 54°14' E 005°03'1817.5
2015-Mar-22 18:32N 54°29' E 005°17'26716.7
2015-Mar-22 02:34N 57°50' E 010°34'1817.9
2015-Mar-22 01:33N 57°51' E 011°08'1514.8
2015-Mar-22 00:33N 57°55' E 011°34'7 5.4
2015-Mar-21 23:15N 58°01' E 011°42'0 0.0
2015-Mar-21 22:27N 58°01' E 011°42'0 0.0
2015-Mar-21 21:27N 58°01' E 011°42'0 0.0
2015-Mar-21 20:33N 58°01' E 011°42'0 0.0
2015-Mar-21 19:30N 58°01' E 011°42'0 0.0
2015-Mar-21 18:33N 58°01' E 011°42'0 0.0
2015-Mar-21 17:33N 58°01' E 011°42'0 0.0
2015-Mar-21 16:30N 58°01' E 011°42'0 0.0
2015-Mar-21 15:27N 58°01' E 011°42'0 0.0
2015-Mar-21 14:29N 58°01' E 011°42'0 0.0
2015-Mar-21 13:27N 58°01' E 011°42'0 0.0
2015-Mar-21 12:33N 58°01' E 011°42'0 0.0
2015-Mar-21 11:33N 58°01' E 011°42'0 0.0
2015-Mar-21 10:33N 58°01' E 011°42'0 0.0
2015-Mar-21 09:24N 58°01' E 011°42'0 0.0
2015-Mar-21 08:24N 58°01' E 011°42'0 0.1
2015-Mar-21 07:33N 58°01' E 011°42'9 9.4
2015-Mar-21 06:33N 57°54' E 011°31'1212.5
2015-Mar-21 05:33N 57°51' E 011°08'1515.5
2015-Mar-21 04:33N 57°51' E 010°39'17414.4
2015-Mar-20 16:28N 55°26' E 007°45'1516.1
2015-Mar-20 15:33N 55°25' E 008°11'9 9.0
2015-Mar-20 14:32N 55°27' E 008°26'1 0.6
2015-Mar-20 13:33N 55°28' E 008°27'0 0.0
2015-Mar-20 12:18N 55°28' E 008°27'0 0.0
2015-Mar-20 11:33N 55°28' E 008°27'0 0.0
2015-Mar-20 10:30N 55°28' E 008°27'0 0.0
2015-Mar-20 09:21N 55°28' E 008°27'0 0.0
2015-Mar-20 08:21N 55°28' E 008°27'0 0.0
2015-Mar-20 07:21N 55°28' E 008°27'0 0.0
2015-Mar-20 06:27N 55°28' E 008°27'0 0.0
2015-Mar-20 05:27N 55°28' E 008°27'0 0.0
2015-Mar-20 04:30N 55°28' E 008°27'2 2.6
2015-Mar-20 03:33N 55°29' E 008°23'1312.7
2015-Mar-20 02:33N 55°22' E 008°05'1716.8
2015-Mar-20 01:33N 55°11' E 007°42'8617.2
2015-Mar-19 20:33N 54°26' E 005°35'1817.7
2015-Mar-19 19:33N 54°15' E 005°12'1717.3
2015-Mar-19 18:33N 54°03' E 004°50'1817.6
2015-Mar-19 17:33N 53°51' E 004°29'4017.4
2015-Mar-19 15:17N 53°23' E 003°40'1718.2
2015-Mar-19 14:20N 53°07' E 003°29'9917.1
2015-Mar-19 08:33N 51°37' E 002°23'1515.1
2015-Mar-19 07:33N 51°26' E 002°07'1514.6
2015-Mar-19 06:33N 51°14' E 001°52'1414.3
2015-Mar-19 05:34N 51°04' E 001°36'2914.2
2015-Mar-19 03:30N 50°39' E 001°14'1515.3
2015-Mar-19 02:33N 50°30' E 000°55'1615.6
2015-Mar-19 01:33N 50°26' E 000°32'  

Dump ship's entire track history